Star Dieppe — LEQZ3 — position and weather

sailwx.info

Track history (hours):
 
Tides and Currents Weather Stations Pressure Air Temp Water Temp Dewpoint Dewpoint Depression Visibility Wind Speed Wind Dir Waves Ship Positions

Star Dieppe

Last reported at 2014-Sep-21 23:28 UTC. Time now 2014-Sep-22 00:14 UTC.
Position N 31°60' E 120°40'.

Length 182 m; draft 7.9 m.

Type: Cargo ship. MMSI: 257439000.

Date/timePositionNaut miles runAvg speedWind from/ knotsBaromVisibWave heightAir tempDewpointWater temp
2014-Sep-21 23:28N 31°60' E 120°40'0 0.0
2014-Sep-21 22:33N 31°60' E 120°40'0 0.0
2014-Sep-21 21:32N 31°60' E 120°40'0 0.0
2014-Sep-21 20:31N 31°60' E 120°40'0 0.0
2014-Sep-21 19:28N 31°60' E 120°40'0 0.0
2014-Sep-21 18:33N 31°60' E 120°40'0 0.0
2014-Sep-21 17:32N 31°60' E 120°40'0 0.0
2014-Sep-21 16:31N 31°60' E 120°40'0 0.0
2014-Sep-21 15:33N 31°60' E 120°40'0 0.0
2014-Sep-21 14:32N 31°60' E 120°40'0 0.0
2014-Sep-21 13:31N 31°60' E 120°40'0 0.0
2014-Sep-21 12:27N 31°60' E 120°40'0 0.0
2014-Sep-21 11:30N 31°60' E 120°40'0 0.0
2014-Sep-21 10:28N 31°60' E 120°40'0 0.0
2014-Sep-21 09:31N 31°60' E 120°40'0 0.0
2014-Sep-21 08:33N 31°60' E 120°40'0 0.0
2014-Sep-21 07:32N 31°60' E 120°40'0 0.0
2014-Sep-21 06:31N 31°60' E 120°40'0 0.0
2014-Sep-21 05:18N 31°60' E 120°40'0 0.0
2014-Sep-21 04:29N 31°60' E 120°40'0 0.0
2014-Sep-21 03:31N 31°60' E 120°40'6 6.1
2014-Sep-21 02:33N 32°01' E 120°47'10 9.7
2014-Sep-21 01:33N 31°53' E 120°53'9 9.1
2014-Sep-21 00:33N 31°47' E 121°01'1010.0
2014-Sep-20 23:33N 31°41' E 121°11'8 7.9
2014-Sep-20 22:33N 31°36' E 121°18'0 0.1
2014-Sep-20 21:11N 31°36' E 121°19'0 0.0
2014-Sep-20 20:04N 31°36' E 121°19'0 0.0
2014-Sep-20 19:18N 31°36' E 121°19'0 0.0
2014-Sep-20 17:23N 31°36' E 121°18'6 7.5
2014-Sep-20 16:33N 31°31' E 121°23'9 9.2
2014-Sep-20 15:33N 31°25' E 121°31'1110.5
2014-Sep-20 14:33N 31°20' E 121°41'1413.3
2014-Sep-20 13:32N 31°10' E 121°52'2210.9
2014-Sep-20 11:29N 31°03' E 122°17'9 9.6
2014-Sep-20 10:34N 31°01' E 122°27'  
2014-Sep-18 00:00N 36°00' E 124°30'19411.8 360 / 201019.010.8 3.522.021.027.0
2014-Sep-17 07:33N 35°59' E 120°30'1212.2
2014-Sep-17 06:33N 36°02' E 120°15'4 0.1
2014-Sep-16 00:29N 35°60' E 120°12'  
2014-Sep-13 16:28N 35°60' E 120°12'0 0.0
2014-Sep-13 15:10N 35°60' E 120°12'0 0.0
2014-Sep-13 14:28N 35°60' E 120°12'0 0.0
2014-Sep-12 22:13N 35°60' E 120°12'0 0.0
2014-Sep-12 20:24N 35°60' E 120°12'0 0.0
2014-Sep-12 18:30N 35°60' E 120°12'0 0.0
2014-Sep-12 17:24N 35°60' E 120°12'0 0.0
2014-Sep-12 14:17N 35°60' E 120°12'0 0.0
2014-Sep-12 13:29N 35°60' E 120°12'0 0.0
2014-Sep-12 08:30N 35°60' E 120°12'6 5.0
2014-Sep-12 07:24N 36°04' E 120°16'1 0.4
2014-Sep-12 05:18N 36°05' E 120°15'0 0.0
2014-Sep-12 04:30N 36°05' E 120°15'0 0.0
2014-Sep-12 02:05N 36°05' E 120°15'0 0.0
2014-Sep-12 01:29N 36°05' E 120°15'0 0.0
2014-Sep-12 00:29N 36°05' E 120°15'0 0.1
2014-Sep-11 23:29N 36°05' E 120°15'  
Track history (hours):
 
Tides and Currents Weather Stations Pressure Air Temp Water Temp Dewpoint Dewpoint Depression Visibility Wind Speed Wind Dir Waves Ship Positions

Star Dieppe

Last reported at 2014-Sep-21 23:28 UTC. Time now 2014-Sep-22 00:14 UTC.
Position N 31°60' E 120°40'.

Length 182 m; draft 7.9 m.

Type: Cargo ship. MMSI: 257439000.

Date/timePositionNaut miles runAvg speedWind from/ knotsBaromVisibWave heightAir tempDewpointWater temp
2014-Sep-21 23:28N 31°60' E 120°40'0 0.0
2014-Sep-21 22:33N 31°60' E 120°40'0 0.0
2014-Sep-21 21:32N 31°60' E 120°40'0 0.0
2014-Sep-21 20:31N 31°60' E 120°40'0 0.0
2014-Sep-21 19:28N 31°60' E 120°40'0 0.0
2014-Sep-21 18:33N 31°60' E 120°40'0 0.0
2014-Sep-21 17:32N 31°60' E 120°40'0 0.0
2014-Sep-21 16:31N 31°60' E 120°40'0 0.0
2014-Sep-21 15:33N 31°60' E 120°40'0 0.0
2014-Sep-21 14:32N 31°60' E 120°40'0 0.0
2014-Sep-21 13:31N 31°60' E 120°40'0 0.0
2014-Sep-21 12:27N 31°60' E 120°40'0 0.0
2014-Sep-21 11:30N 31°60' E 120°40'0 0.0
2014-Sep-21 10:28N 31°60' E 120°40'0 0.0
2014-Sep-21 09:31N 31°60' E 120°40'0 0.0
2014-Sep-21 08:33N 31°60' E 120°40'0 0.0
2014-Sep-21 07:32N 31°60' E 120°40'0 0.0
2014-Sep-21 06:31N 31°60' E 120°40'0 0.0
2014-Sep-21 05:18N 31°60' E 120°40'0 0.0
2014-Sep-21 04:29N 31°60' E 120°40'0 0.0
2014-Sep-21 03:31N 31°60' E 120°40'6 6.1
2014-Sep-21 02:33N 32°01' E 120°47'10 9.7
2014-Sep-21 01:33N 31°53' E 120°53'9 9.1
2014-Sep-21 00:33N 31°47' E 121°01'1010.0
2014-Sep-20 23:33N 31°41' E 121°11'8 7.9
2014-Sep-20 22:33N 31°36' E 121°18'0 0.1
2014-Sep-20 21:11N 31°36' E 121°19'0 0.0
2014-Sep-20 20:04N 31°36' E 121°19'0 0.0
2014-Sep-20 19:18N 31°36' E 121°19'0 0.0
2014-Sep-20 17:23N 31°36' E 121°18'6 7.5
2014-Sep-20 16:33N 31°31' E 121°23'9 9.2
2014-Sep-20 15:33N 31°25' E 121°31'1110.5
2014-Sep-20 14:33N 31°20' E 121°41'1413.3
2014-Sep-20 13:32N 31°10' E 121°52'2210.9
2014-Sep-20 11:29N 31°03' E 122°17'9 9.6
2014-Sep-20 10:34N 31°01' E 122°27'  
2014-Sep-18 00:00N 36°00' E 124°30'19411.8 360 / 201019.010.8 3.522.021.027.0
2014-Sep-17 07:33N 35°59' E 120°30'1212.2
2014-Sep-17 06:33N 36°02' E 120°15'4 0.1
2014-Sep-16 00:29N 35°60' E 120°12'  
2014-Sep-13 16:28N 35°60' E 120°12'0 0.0
2014-Sep-13 15:10N 35°60' E 120°12'0 0.0
2014-Sep-13 14:28N 35°60' E 120°12'0 0.0
2014-Sep-12 22:13N 35°60' E 120°12'0 0.0
2014-Sep-12 20:24N 35°60' E 120°12'0 0.0
2014-Sep-12 18:30N 35°60' E 120°12'0 0.0
2014-Sep-12 17:24N 35°60' E 120°12'0 0.0
2014-Sep-12 14:17N 35°60' E 120°12'0 0.0
2014-Sep-12 13:29N 35°60' E 120°12'0 0.0
2014-Sep-12 08:30N 35°60' E 120°12'6 5.0
2014-Sep-12 07:24N 36°04' E 120°16'1 0.4
2014-Sep-12 05:18N 36°05' E 120°15'0 0.0
2014-Sep-12 04:30N 36°05' E 120°15'0 0.0
2014-Sep-12 02:05N 36°05' E 120°15'0 0.0
2014-Sep-12 01:29N 36°05' E 120°15'0 0.0
2014-Sep-12 00:29N 36°05' E 120°15'0 0.1
2014-Sep-11 23:29N 36°05' E 120°15'  

Dump ship's entire track history